sensor_id;sensor_type;location;lat;lon;timestamp;P1;durP1;ratioP1;P2;durP2;ratioP2
42742;SDS011;28397;44.552;-0.848;2023-04-06T00:01:48;9.98;;;4.65;;
42742;SDS011;28397;44.552;-0.848;2023-04-06T00:04:15;11.48;;;4.75;;
42742;SDS011;28397;44.552;-0.848;2023-04-06T00:06:41;9.48;;;4.30;;
42742;SDS011;28397;44.552;-0.848;2023-04-06T00:09:07;8.00;;;4.60;;
42742;SDS011;28397;44.552;-0.848;2023-04-06T00:11:33;11.43;;;5.05;;
42742;SDS011;28397;44.552;-0.848;2023-04-06T00:14:01;11.27;;;4.72;;
42742;SDS011;28397;44.552;-0.848;2023-04-06T00:16:27;10.68;;;4.55;;
42742;SDS011;28397;44.552;-0.848;2023-04-06T00:18:52;7.65;;;4.40;;
42742;SDS011;28397;44.552;-0.848;2023-04-06T00:21:18;8.38;;;4.60;;
42742;SDS011;28397;44.552;-0.848;2023-04-06T00:23:44;8.57;;;4.65;;
42742;SDS011;28397;44.552;-0.848;2023-04-06T00:26:10;8.20;;;4.22;;
42742;SDS011;28397;44.552;-0.848;2023-04-06T00:28:36;9.02;;;4.53;;
42742;SDS011;28397;44.552;-0.848;2023-04-06T00:31:02;9.85;;;4.70;;
42742;SDS011;28397;44.552;-0.848;2023-04-06T00:33:28;8.95;;;4.57;;
42742;SDS011;28397;44.552;-0.848;2023-04-06T00:35:54;10.02;;;5.25;;
42742;SDS011;28397;44.552;-0.848;2023-04-06T00:38:20;10.55;;;5.28;;
42742;SDS011;28397;44.552;-0.848;2023-04-06T00:40:46;10.82;;;6.10;;
42742;SDS011;28397;44.552;-0.848;2023-04-06T00:43:12;8.82;;;5.72;;
42742;SDS011;28397;44.552;-0.848;2023-04-06T00:45:38;10.45;;;5.38;;
42742;SDS011;28397;44.552;-0.848;2023-04-06T00:48:05;10.48;;;5.28;;
42742;SDS011;28397;44.552;-0.848;2023-04-06T00:50:32;11.23;;;5.72;;
42742;SDS011;28397;44.552;-0.848;2023-04-06T00:52:58;14.43;;;5.68;;
42742;SDS011;28397;44.552;-0.848;2023-04-06T00:55:25;8.80;;;5.15;;
42742;SDS011;28397;44.552;-0.848;2023-04-06T00:57:51;12.27;;;5.60;;
42742;SDS011;28397;44.552;-0.848;2023-04-06T01:00:17;9.73;;;5.63;;
42742;SDS011;28397;44.552;-0.848;2023-04-06T01:02:43;12.70;;;5.95;;
42742;SDS011;28397;44.552;-0.848;2023-04-06T01:05:10;12.07;;;5.68;;
42742;SDS011;28397;44.552;-0.848;2023-04-06T01:07:36;9.32;;;5.95;;
42742;SDS011;28397;44.552;-0.848;2023-04-06T01:10:02;7.97;;;5.50;;
42742;SDS011;28397;44.552;-0.848;2023-04-06T01:12:28;8.98;;;5.43;;
42742;SDS011;28397;44.552;-0.848;2023-04-06T01:14:54;10.25;;;5.70;;
42742;SDS011;28397;44.552;-0.848;2023-04-06T01:17:20;8.25;;;5.80;;
42742;SDS011;28397;44.552;-0.848;2023-04-06T01:19:46;9.05;;;5.85;;
42742;SDS011;28397;44.552;-0.848;2023-04-06T01:22:17;11.65;;;5.80;;
42742;SDS011;28397;44.552;-0.848;2023-04-06T01:24:43;10.82;;;6.20;;
42742;SDS011;28397;44.552;-0.848;2023-04-06T01:27:09;12.02;;;5.70;;
42742;SDS011;28397;44.552;-0.848;2023-04-06T01:29:35;11.23;;;5.32;;
42742;SDS011;28397;44.552;-0.848;2023-04-06T01:32:01;9.27;;;6.18;;
42742;SDS011;28397;44.552;-0.848;2023-04-06T01:34:27;14.65;;;6.63;;
42742;SDS011;28397;44.552;-0.848;2023-04-06T01:36:53;8.27;;;5.80;;
42742;SDS011;28397;44.552;-0.848;2023-04-06T01:39:19;11.57;;;6.13;;
42742;SDS011;28397;44.552;-0.848;2023-04-06T01:41:45;12.15;;;6.20;;
42742;SDS011;28397;44.552;-0.848;2023-04-06T01:44:12;8.73;;;5.63;;
42742;SDS011;28397;44.552;-0.848;2023-04-06T01:46:39;10.30;;;5.25;;
42742;SDS011;28397;44.552;-0.848;2023-04-06T01:49:05;8.07;;;5.95;;
42742;SDS011;28397;44.552;-0.848;2023-04-06T01:51:31;9.20;;;5.68;;
42742;SDS011;28397;44.552;-0.848;2023-04-06T01:53:57;8.77;;;5.70;;
42742;SDS011;28397;44.552;-0.848;2023-04-06T01:56:22;10.63;;;6.00;;
42742;SDS011;28397;44.552;-0.848;2023-04-06T01:58:49;9.38;;;5.80;;
42742;SDS011;28397;44.552;-0.848;2023-04-06T02:01:15;11.70;;;5.97;;
42742;SDS011;28397;44.552;-0.848;2023-04-06T02:03:40;10.38;;;5.97;;
42742;SDS011;28397;44.552;-0.848;2023-04-06T02:06:06;10.30;;;5.55;;
42742;SDS011;28397;44.552;-0.848;2023-04-06T02:08:32;11.60;;;5.72;;
42742;SDS011;28397;44.552;-0.848;2023-04-06T02:10:57;8.52;;;6.00;;
42742;SDS011;28397;44.552;-0.848;2023-04-06T02:13:23;11.32;;;5.75;;
42742;SDS011;28397;44.552;-0.848;2023-04-06T02:15:49;8.95;;;5.80;;
42742;SDS011;28397;44.552;-0.848;2023-04-06T02:18:15;9.90;;;5.55;;
42742;SDS011;28397;44.552;-0.848;2023-04-06T02:20:42;8.20;;;5.47;;
42742;SDS011;28397;44.552;-0.848;2023-04-06T02:23:08;11.73;;;5.82;;
42742;SDS011;28397;44.552;-0.848;2023-04-06T02:25:34;7.88;;;5.60;;
42742;SDS011;28397;44.552;-0.848;2023-04-06T02:27:59;12.93;;;5.78;;
42742;SDS011;28397;44.552;-0.848;2023-04-06T02:30:25;9.95;;;6.18;;
42742;SDS011;28397;44.552;-0.848;2023-04-06T02:32:51;8.90;;;5.43;;
42742;SDS011;28397;44.552;-0.848;2023-04-06T02:35:17;8.02;;;5.43;;
42742;SDS011;28397;44.552;-0.848;2023-04-06T02:37:43;8.05;;;5.35;;
42742;SDS011;28397;44.552;-0.848;2023-04-06T02:40:08;9.43;;;5.55;;
42742;SDS011;28397;44.552;-0.848;2023-04-06T02:42:35;10.40;;;5.45;;
42742;SDS011;28397;44.552;-0.848;2023-04-06T02:45:00;8.32;;;5.18;;
42742;SDS011;28397;44.552;-0.848;2023-04-06T02:47:26;6.85;;;5.10;;
42742;SDS011;28397;44.552;-0.848;2023-04-06T02:49:52;9.05;;;5.32;;
42742;SDS011;28397;44.552;-0.848;2023-04-06T02:52:18;8.90;;;5.00;;
42742;SDS011;28397;44.552;-0.848;2023-04-06T02:54:43;8.40;;;5.22;;
42742;SDS011;28397;44.552;-0.848;2023-04-06T02:57:09;11.30;;;5.90;;
42742;SDS011;28397;44.552;-0.848;2023-04-06T02:59:35;12.75;;;6.32;;
42742;SDS011;28397;44.552;-0.848;2023-04-06T03:02:01;10.02;;;6.20;;
42742;SDS011;28397;44.552;-0.848;2023-04-06T03:04:26;11.48;;;6.80;;
42742;SDS011;28397;44.552;-0.848;2023-04-06T03:06:53;9.63;;;6.40;;
42742;SDS011;28397;44.552;-0.848;2023-04-06T03:09:20;9.65;;;6.50;;
42742;SDS011;28397;44.552;-0.848;2023-04-06T03:11:45;9.75;;;6.38;;
42742;SDS011;28397;44.552;-0.848;2023-04-06T03:14:11;9.98;;;6.55;;
42742;SDS011;28397;44.552;-0.848;2023-04-06T03:16:37;9.05;;;6.72;;
42742;SDS011;28397;44.552;-0.848;2023-04-06T03:19:02;11.13;;;6.90;;
42742;SDS011;28397;44.552;-0.848;2023-04-06T03:21:28;12.93;;;6.68;;
42742;SDS011;28397;44.552;-0.848;2023-04-06T03:23:54;9.13;;;6.10;;
42742;SDS011;28397;44.552;-0.848;2023-04-06T03:26:19;10.73;;;6.25;;
42742;SDS011;28397;44.552;-0.848;2023-04-06T03:28:47;10.02;;;6.70;;
42742;SDS011;28397;44.552;-0.848;2023-04-06T03:31:12;11.20;;;7.25;;
42742;SDS011;28397;44.552;-0.848;2023-04-06T03:33:38;10.77;;;6.57;;
42742;SDS011;28397;44.552;-0.848;2023-04-06T03:36:04;11.70;;;7.07;;
42742;SDS011;28397;44.552;-0.848;2023-04-06T03:38:31;11.90;;;6.40;;
42742;SDS011;28397;44.552;-0.848;2023-04-06T03:40:57;11.10;;;6.50;;
42742;SDS011;28397;44.552;-0.848;2023-04-06T03:43:23;8.02;;;5.80;;
42742;SDS011;28397;44.552;-0.848;2023-04-06T03:45:48;8.52;;;6.32;;
42742;SDS011;28397;44.552;-0.848;2023-04-06T03:48:14;10.02;;;6.70;;
42742;SDS011;28397;44.552;-0.848;2023-04-06T03:50:40;10.27;;;6.22;;
42742;SDS011;28397;44.552;-0.848;2023-04-06T03:53:06;10.20;;;6.95;;
42742;SDS011;28397;44.552;-0.848;2023-04-06T03:55:31;9.60;;;6.82;;
42742;SDS011;28397;44.552;-0.848;2023-04-06T03:57:57;9.95;;;6.63;;
42742;SDS011;28397;44.552;-0.848;2023-04-06T04:00:23;10.23;;;6.63;;
42742;SDS011;28397;44.552;-0.848;2023-04-06T04:02:48;11.25;;;6.63;;
42742;SDS011;28397;44.552;-0.848;2023-04-06T04:05:14;10.50;;;6.75;;
42742;SDS011;28397;44.552;-0.848;2023-04-06T04:07:40;9.45;;;6.80;;
42742;SDS011;28397;44.552;-0.848;2023-04-06T04:10:05;11.05;;;6.05;;
42742;SDS011;28397;44.552;-0.848;2023-04-06T04:12:31;11.20;;;7.13;;
42742;SDS011;28397;44.552;-0.848;2023-04-06T04:14:57;11.80;;;7.85;;
42742;SDS011;28397;44.552;-0.848;2023-04-06T04:17:24;12.23;;;7.78;;
42742;SDS011;28397;44.552;-0.848;2023-04-06T04:19:50;11.02;;;6.97;;
42742;SDS011;28397;44.552;-0.848;2023-04-06T04:22:15;9.55;;;6.90;;
42742;SDS011;28397;44.552;-0.848;2023-04-06T04:24:41;10.85;;;7.38;;
42742;SDS011;28397;44.552;-0.848;2023-04-06T04:27:07;12.80;;;6.93;;
42742;SDS011;28397;44.552;-0.848;2023-04-06T04:29:32;9.88;;;6.63;;
42742;SDS011;28397;44.552;-0.848;2023-04-06T04:31:58;10.55;;;6.45;;
42742;SDS011;28397;44.552;-0.848;2023-04-06T04:34:24;9.40;;;6.63;;
42742;SDS011;28397;44.552;-0.848;2023-04-06T04:36:50;8.80;;;6.40;;
42742;SDS011;28397;44.552;-0.848;2023-04-06T04:39:16;8.27;;;6.85;;
42742;SDS011;28397;44.552;-0.848;2023-04-06T04:41:42;11.80;;;7.50;;
42742;SDS011;28397;44.552;-0.848;2023-04-06T04:44:07;13.32;;;7.40;;
42742;SDS011;28397;44.552;-0.848;2023-04-06T04:46:33;11.77;;;7.60;;
42742;SDS011;28397;44.552;-0.848;2023-04-06T04:48:59;11.82;;;7.05;;
42742;SDS011;28397;44.552;-0.848;2023-04-06T04:51:25;10.85;;;7.00;;
42742;SDS011;28397;44.552;-0.848;2023-04-06T04:53:51;10.80;;;6.90;;
42742;SDS011;28397;44.552;-0.848;2023-04-06T04:56:17;9.52;;;6.78;;
42742;SDS011;28397;44.552;-0.848;2023-04-06T04:58:42;10.40;;;6.75;;
42742;SDS011;28397;44.552;-0.848;2023-04-06T05:01:08;10.32;;;6.88;;
42742;SDS011;28397;44.552;-0.848;2023-04-06T05:03:34;12.57;;;7.28;;
42742;SDS011;28397;44.552;-0.848;2023-04-06T05:06:03;13.23;;;6.90;;
42742;SDS011;28397;44.552;-0.848;2023-04-06T05:08:30;13.60;;;6.88;;
42742;SDS011;28397;44.552;-0.848;2023-04-06T05:10:55;12.60;;;6.70;;
42742;SDS011;28397;44.552;-0.848;2023-04-06T05:13:21;10.52;;;6.95;;
42742;SDS011;28397;44.552;-0.848;2023-04-06T05:15:47;9.35;;;7.20;;
42742;SDS011;28397;44.552;-0.848;2023-04-06T05:18:13;10.98;;;7.07;;
42742;SDS011;28397;44.552;-0.848;2023-04-06T05:20:39;11.13;;;7.20;;
42742;SDS011;28397;44.552;-0.848;2023-04-06T05:23:04;11.20;;;7.20;;
42742;SDS011;28397;44.552;-0.848;2023-04-06T05:25:30;17.63;;;8.35;;
42742;SDS011;28397;44.552;-0.848;2023-04-06T05:27:57;13.85;;;8.50;;
42742;SDS011;28397;44.552;-0.848;2023-04-06T05:30:23;20.35;;;8.80;;
42742;SDS011;28397;44.552;-0.848;2023-04-06T05:32:49;14.35;;;7.70;;
42742;SDS011;28397;44.552;-0.848;2023-04-06T05:35:15;15.05;;;8.18;;
42742;SDS011;28397;44.552;-0.848;2023-04-06T05:37:42;17.40;;;8.13;;
42742;SDS011;28397;44.552;-0.848;2023-04-06T05:40:08;16.95;;;8.52;;
42742;SDS011;28397;44.552;-0.848;2023-04-06T05:42:37;13.32;;;7.63;;
42742;SDS011;28397;44.552;-0.848;2023-04-06T05:45:04;12.43;;;7.50;;
42742;SDS011;28397;44.552;-0.848;2023-04-06T05:47:33;12.52;;;7.18;;
42742;SDS011;28397;44.552;-0.848;2023-04-06T05:49:59;14.23;;;6.93;;
42742;SDS011;28397;44.552;-0.848;2023-04-06T05:52:25;15.35;;;7.30;;
42742;SDS011;28397;44.552;-0.848;2023-04-06T05:54:51;13.80;;;7.63;;
42742;SDS011;28397;44.552;-0.848;2023-04-06T05:57:17;11.98;;;8.13;;
42742;SDS011;28397;44.552;-0.848;2023-04-06T05:59:43;12.40;;;7.78;;
42742;SDS011;28397;44.552;-0.848;2023-04-06T06:02:09;15.98;;;7.93;;
42742;SDS011;28397;44.552;-0.848;2023-04-06T06:04:34;15.73;;;7.95;;
42742;SDS011;28397;44.552;-0.848;2023-04-06T06:07:00;16.88;;;9.18;;
42742;SDS011;28397;44.552;-0.848;2023-04-06T06:09:26;17.27;;;9.52;;
42742;SDS011;28397;44.552;-0.848;2023-04-06T06:11:51;15.20;;;9.18;;
42742;SDS011;28397;44.552;-0.848;2023-04-06T06:14:17;14.48;;;9.40;;
42742;SDS011;28397;44.552;-0.848;2023-04-06T06:16:43;13.68;;;9.75;;
42742;SDS011;28397;44.552;-0.848;2023-04-06T06:19:09;13.05;;;9.32;;
42742;SDS011;28397;44.552;-0.848;2023-04-06T06:21:35;11.85;;;9.30;;
42742;SDS011;28397;44.552;-0.848;2023-04-06T06:24:01;11.45;;;9.60;;
42742;SDS011;28397;44.552;-0.848;2023-04-06T06:26:27;13.00;;;9.40;;
42742;SDS011;28397;44.552;-0.848;2023-04-06T06:28:52;14.40;;;9.63;;
42742;SDS011;28397;44.552;-0.848;2023-04-06T06:31:18;15.82;;;9.75;;
42742;SDS011;28397;44.552;-0.848;2023-04-06T06:33:47;12.82;;;9.57;;
42742;SDS011;28397;44.552;-0.848;2023-04-06T06:36:15;18.58;;;9.40;;
42742;SDS011;28397;44.552;-0.848;2023-04-06T06:38:42;16.05;;;8.80;;
42742;SDS011;28397;44.552;-0.848;2023-04-06T06:41:08;15.52;;;9.32;;
42742;SDS011;28397;44.552;-0.848;2023-04-06T06:43:33;17.38;;;8.95;;
42742;SDS011;28397;44.552;-0.848;2023-04-06T06:45:59;13.25;;;8.85;;
42742;SDS011;28397;44.552;-0.848;2023-04-06T06:48:25;14.65;;;8.73;;
42742;SDS011;28397;44.552;-0.848;2023-04-06T06:50:50;16.77;;;8.70;;
42742;SDS011;28397;44.552;-0.848;2023-04-06T06:53:16;14.18;;;8.73;;
42742;SDS011;28397;44.552;-0.848;2023-04-06T06:55:42;16.05;;;9.10;;
42742;SDS011;28397;44.552;-0.848;2023-04-06T06:58:09;15.00;;;8.90;;
42742;SDS011;28397;44.552;-0.848;2023-04-06T07:00:35;12.13;;;8.52;;
42742;SDS011;28397;44.552;-0.848;2023-04-06T07:03:00;20.45;;;10.02;;
42742;SDS011;28397;44.552;-0.848;2023-04-06T07:05:26;19.15;;;9.75;;
42742;SDS011;28397;44.552;-0.848;2023-04-06T07:07:52;15.60;;;9.48;;
42742;SDS011;28397;44.552;-0.848;2023-04-06T07:10:18;12.48;;;9.07;;
42742;SDS011;28397;44.552;-0.848;2023-04-06T07:12:44;13.57;;;9.32;;
42742;SDS011;28397;44.552;-0.848;2023-04-06T07:15:11;14.48;;;9.52;;
42742;SDS011;28397;44.552;-0.848;2023-04-06T07:17:36;10.70;;;8.95;;
42742;SDS011;28397;44.552;-0.848;2023-04-06T07:20:02;14.00;;;8.80;;
42742;SDS011;28397;44.552;-0.848;2023-04-06T07:22:28;11.43;;;8.77;;
42742;SDS011;28397;44.552;-0.848;2023-04-06T07:24:54;10.77;;;8.82;;
42742;SDS011;28397;44.552;-0.848;2023-04-06T07:27:20;9.45;;;8.43;;
42742;SDS011;28397;44.552;-0.848;2023-04-06T07:29:45;11.80;;;8.23;;
42742;SDS011;28397;44.552;-0.848;2023-04-06T07:32:12;15.05;;;8.85;;
42742;SDS011;28397;44.552;-0.848;2023-04-06T07:34:37;12.30;;;8.68;;
42742;SDS011;28397;44.552;-0.848;2023-04-06T07:37:03;10.25;;;8.93;;
42742;SDS011;28397;44.552;-0.848;2023-04-06T07:39:29;12.63;;;8.77;;
42742;SDS011;28397;44.552;-0.848;2023-04-06T07:41:55;11.48;;;8.75;;
42742;SDS011;28397;44.552;-0.848;2023-04-06T07:44:20;11.27;;;8.90;;
42742;SDS011;28397;44.552;-0.848;2023-04-06T07:46:46;12.77;;;9.88;;
42742;SDS011;28397;44.552;-0.848;2023-04-06T07:49:12;15.13;;;9.52;;
42742;SDS011;28397;44.552;-0.848;2023-04-06T07:51:38;12.40;;;9.13;;
42742;SDS011;28397;44.552;-0.848;2023-04-06T07:54:04;11.25;;;8.77;;
42742;SDS011;28397;44.552;-0.848;2023-04-06T07:56:30;12.07;;;9.30;;
42742;SDS011;28397;44.552;-0.848;2023-04-06T07:58:56;15.20;;;9.85;;
42742;SDS011;28397;44.552;-0.848;2023-04-06T08:01:23;13.90;;;9.98;;
42742;SDS011;28397;44.552;-0.848;2023-04-06T08:03:49;14.13;;;9.75;;
42742;SDS011;28397;44.552;-0.848;2023-04-06T08:06:15;11.52;;;9.60;;
42742;SDS011;28397;44.552;-0.848;2023-04-06T08:08:41;13.15;;;9.90;;
42742;SDS011;28397;44.552;-0.848;2023-04-06T08:11:07;14.07;;;10.32;;
42742;SDS011;28397;44.552;-0.848;2023-04-06T08:13:33;13.95;;;10.00;;
42742;SDS011;28397;44.552;-0.848;2023-04-06T08:16:00;12.90;;;9.57;;
42742;SDS011;28397;44.552;-0.848;2023-04-06T08:18:26;13.70;;;9.93;;
42742;SDS011;28397;44.552;-0.848;2023-04-06T08:20:51;14.30;;;9.60;;
42742;SDS011;28397;44.552;-0.848;2023-04-06T08:23:17;12.07;;;9.60;;
42742;SDS011;28397;44.552;-0.848;2023-04-06T08:25:43;12.73;;;9.57;;
42742;SDS011;28397;44.552;-0.848;2023-04-06T08:28:08;10.75;;;8.95;;
42742;SDS011;28397;44.552;-0.848;2023-04-06T08:30:34;11.93;;;9.55;;
42742;SDS011;28397;44.552;-0.848;2023-04-06T08:33:00;15.05;;;9.07;;
42742;SDS011;28397;44.552;-0.848;2023-04-06T08:35:26;11.52;;;8.88;;
42742;SDS011;28397;44.552;-0.848;2023-04-06T08:37:53;13.48;;;8.98;;
42742;SDS011;28397;44.552;-0.848;2023-04-06T08:40:18;13.52;;;8.95;;
42742;SDS011;28397;44.552;-0.848;2023-04-06T08:42:56;18.65;;;9.57;;
42742;SDS011;28397;44.552;-0.848;2023-04-06T08:45:24;13.88;;;9.40;;
42742;SDS011;28397;44.552;-0.848;2023-04-06T08:47:51;15.32;;;8.90;;
42742;SDS011;28397;44.552;-0.848;2023-04-06T08:50:20;23.45;;;9.02;;
42742;SDS011;28397;44.552;-0.848;2023-04-06T08:52:47;15.25;;;9.20;;
42742;SDS011;28397;44.552;-0.848;2023-04-06T08:55:13;15.07;;;8.90;;
42742;SDS011;28397;44.552;-0.848;2023-04-06T08:57:40;13.48;;;9.15;;
42742;SDS011;28397;44.552;-0.848;2023-04-06T09:00:07;12.43;;;8.48;;
42742;SDS011;28397;44.552;-0.848;2023-04-06T09:02:37;17.52;;;8.20;;
42742;SDS011;28397;44.552;-0.848;2023-04-06T09:05:06;13.13;;;8.73;;
42742;SDS011;28397;44.552;-0.848;2023-04-06T09:07:33;12.18;;;8.05;;
42742;SDS011;28397;44.552;-0.848;2023-04-06T09:09:58;9.75;;;7.90;;
42742;SDS011;28397;44.552;-0.848;2023-04-06T09:12:25;8.70;;;7.25;;
42742;SDS011;28397;44.552;-0.848;2023-04-06T09:14:52;8.80;;;6.80;;
42742;SDS011;28397;44.552;-0.848;2023-04-06T09:17:19;10.77;;;7.75;;
42742;SDS011;28397;44.552;-0.848;2023-04-06T09:19:47;9.77;;;7.22;;
42742;SDS011;28397;44.552;-0.848;2023-04-06T09:22:13;12.77;;;8.32;;
42742;SDS011;28397;44.552;-0.848;2023-04-06T09:24:52;10.73;;;7.82;;
42742;SDS011;28397;44.552;-0.848;2023-04-06T09:27:32;10.73;;;6.68;;
42742;SDS011;28397;44.552;-0.848;2023-04-06T09:30:06;10.65;;;7.00;;
42742;SDS011;28397;44.552;-0.848;2023-04-06T09:32:51;7.60;;;6.55;;
42742;SDS011;28397;44.552;-0.848;2023-04-06T09:35:18;11.00;;;7.33;;
42742;SDS011;28397;44.552;-0.848;2023-04-06T09:37:48;10.43;;;7.32;;
42742;SDS011;28397;44.552;-0.848;2023-04-06T09:40:15;11.63;;;7.10;;
42742;SDS011;28397;44.552;-0.848;2023-04-06T09:42:42;16.65;;;7.07;;
42742;SDS011;28397;44.552;-0.848;2023-04-06T09:45:11;11.20;;;7.18;;
42742;SDS011;28397;44.552;-0.848;2023-04-06T09:47:37;9.10;;;7.28;;
42742;SDS011;28397;44.552;-0.848;2023-04-06T09:50:05;11.25;;;7.45;;
42742;SDS011;28397;44.552;-0.848;2023-04-06T09:52:38;9.82;;;7.75;;
42742;SDS011;28397;44.552;-0.848;2023-04-06T09:55:20;10.02;;;6.82;;
42742;SDS011;28397;44.552;-0.848;2023-04-06T09:58:13;10.32;;;7.38;;
42742;SDS011;28397;44.552;-0.848;2023-04-06T10:00:50;10.98;;;7.93;;
42742;SDS011;28397;44.552;-0.848;2023-04-06T10:03:30;12.50;;;8.20;;
42742;SDS011;28397;44.552;-0.848;2023-04-06T10:06:10;10.10;;;7.90;;
42742;SDS011;28397;44.552;-0.848;2023-04-06T10:08:38;12.63;;;8.20;;
42742;SDS011;28397;44.552;-0.848;2023-04-06T10:11:06;12.30;;;8.43;;
42742;SDS011;28397;44.552;-0.848;2023-04-06T10:13:33;14.30;;;7.18;;
42742;SDS011;28397;44.552;-0.848;2023-04-06T10:15:59;10.95;;;6.57;;
42742;SDS011;28397;44.552;-0.848;2023-04-06T10:18:28;19.30;;;9.63;;
42742;SDS011;28397;44.552;-0.848;2023-04-06T10:21:01;12.50;;;6.57;;
42742;SDS011;28397;44.552;-0.848;2023-04-06T10:26:13;11.48;;;6.30;;
42742;SDS011;28397;44.552;-0.848;2023-04-06T10:28:42;13.20;;;7.40;;
42742;SDS011;28397;44.552;-0.848;2023-04-06T10:31:08;15.40;;;5.97;;
42742;SDS011;28397;44.552;-0.848;2023-04-06T10:33:34;11.32;;;5.47;;
42742;SDS011;28397;44.552;-0.848;2023-04-06T10:36:10;8.57;;;4.65;;
42742;SDS011;28397;44.552;-0.848;2023-04-06T10:38:40;10.13;;;4.78;;
42742;SDS011;28397;44.552;-0.848;2023-04-06T10:41:07;8.73;;;4.65;;
42742;SDS011;28397;44.552;-0.848;2023-04-06T10:43:35;8.50;;;4.35;;
42742;SDS011;28397;44.552;-0.848;2023-04-06T10:46:02;8.18;;;4.40;;
42742;SDS011;28397;44.552;-0.848;2023-04-06T10:48:46;6.22;;;3.97;;
42742;SDS011;28397;44.552;-0.848;2023-04-06T10:51:13;8.20;;;4.43;;
42742;SDS011;28397;44.552;-0.848;2023-04-06T10:53:44;7.00;;;4.60;;
42742;SDS011;28397;44.552;-0.848;2023-04-06T10:56:16;6.78;;;3.92;;
42742;SDS011;28397;44.552;-0.848;2023-04-06T10:58:46;7.40;;;3.95;;
42742;SDS011;28397;44.552;-0.848;2023-04-06T11:01:18;6.15;;;4.50;;
42742;SDS011;28397;44.552;-0.848;2023-04-06T11:06:17;4.35;;;3.17;;
42742;SDS011;28397;44.552;-0.848;2023-04-06T11:08:46;5.22;;;3.30;;
42742;SDS011;28397;44.552;-0.848;2023-04-06T11:11:13;6.28;;;3.45;;
42742;SDS011;28397;44.552;-0.848;2023-04-06T11:16:06;5.28;;;3.25;;
42742;SDS011;28397;44.552;-0.848;2023-04-06T11:18:37;9.60;;;3.15;;
42742;SDS011;28397;44.552;-0.848;2023-04-06T11:21:02;6.70;;;3.22;;
42742;SDS011;28397;44.552;-0.848;2023-04-06T11:23:28;7.47;;;3.28;;
42742;SDS011;28397;44.552;-0.848;2023-04-06T11:25:54;5.35;;;2.90;;
42742;SDS011;28397;44.552;-0.848;2023-04-06T11:28:19;5.72;;;2.53;;
42742;SDS011;28397;44.552;-0.848;2023-04-06T11:30:46;6.45;;;3.00;;
42742;SDS011;28397;44.552;-0.848;2023-04-06T11:33:19;3.72;;;2.28;;
42742;SDS011;28397;44.552;-0.848;2023-04-06T11:35:46;3.70;;;2.55;;
42742;SDS011;28397;44.552;-0.848;2023-04-06T11:38:12;7.63;;;3.15;;
42742;SDS011;28397;44.552;-0.848;2023-04-06T11:40:38;4.07;;;2.63;;
42742;SDS011;28397;44.552;-0.848;2023-04-06T11:43:03;3.83;;;2.67;;
42742;SDS011;28397;44.552;-0.848;2023-04-06T11:45:41;4.38;;;2.65;;
42742;SDS011;28397;44.552;-0.848;2023-04-06T11:48:16;4.97;;;3.28;;
42742;SDS011;28397;44.552;-0.848;2023-04-06T11:50:43;6.03;;;2.95;;
42742;SDS011;28397;44.552;-0.848;2023-04-06T11:53:12;6.25;;;2.90;;
42742;SDS011;28397;44.552;-0.848;2023-04-06T11:55:38;4.55;;;3.13;;
42742;SDS011;28397;44.552;-0.848;2023-04-06T11:58:04;5.38;;;2.92;;
42742;SDS011;28397;44.552;-0.848;2023-04-06T12:00:31;4.95;;;2.88;;
42742;SDS011;28397;44.552;-0.848;2023-04-06T12:02:59;12.23;;;3.50;;
42742;SDS011;28397;44.552;-0.848;2023-04-06T12:05:25;11.70;;;3.67;;
42742;SDS011;28397;44.552;-0.848;2023-04-06T12:07:51;9.18;;;3.90;;
42742;SDS011;28397;44.552;-0.848;2023-04-06T12:10:17;6.97;;;3.40;;
42742;SDS011;28397;44.552;-0.848;2023-04-06T12:12:42;5.47;;;3.25;;
42742;SDS011;28397;44.552;-0.848;2023-04-06T12:15:08;6.93;;;3.13;;
42742;SDS011;28397;44.552;-0.848;2023-04-06T12:17:34;7.05;;;3.15;;
42742;SDS011;28397;44.552;-0.848;2023-04-06T12:20:01;7.05;;;2.65;;
42742;SDS011;28397;44.552;-0.848;2023-04-06T12:22:27;5.63;;;3.20;;
42742;SDS011;28397;44.552;-0.848;2023-04-06T12:24:53;7.50;;;2.90;;
42742;SDS011;28397;44.552;-0.848;2023-04-06T12:27:19;8.13;;;3.45;;
42742;SDS011;28397;44.552;-0.848;2023-04-06T12:29:45;7.80;;;3.75;;
42742;SDS011;28397;44.552;-0.848;2023-04-06T12:32:12;8.82;;;3.55;;
42742;SDS011;28397;44.552;-0.848;2023-04-06T12:34:37;7.35;;;3.75;;
42742;SDS011;28397;44.552;-0.848;2023-04-06T12:37:03;7.88;;;3.58;;
42742;SDS011;28397;44.552;-0.848;2023-04-06T12:39:29;10.90;;;3.88;;
42742;SDS011;28397;44.552;-0.848;2023-04-06T12:41:55;6.40;;;3.20;;
42742;SDS011;28397;44.552;-0.848;2023-04-06T12:44:22;6.95;;;3.28;;
42742;SDS011;28397;44.552;-0.848;2023-04-06T12:46:48;10.15;;;3.88;;
42742;SDS011;28397;44.552;-0.848;2023-04-06T12:49:13;8.77;;;3.78;;
42742;SDS011;28397;44.552;-0.848;2023-04-06T12:51:41;10.27;;;3.75;;
42742;SDS011;28397;44.552;-0.848;2023-04-06T12:54:07;6.93;;;3.63;;
42742;SDS011;28397;44.552;-0.848;2023-04-06T12:56:33;10.70;;;3.92;;
42742;SDS011;28397;44.552;-0.848;2023-04-06T12:58:58;11.52;;;4.07;;
42742;SDS011;28397;44.552;-0.848;2023-04-06T13:01:24;12.00;;;3.70;;
42742;SDS011;28397;44.552;-0.848;2023-04-06T13:03:51;10.68;;;4.05;;
42742;SDS011;28397;44.552;-0.848;2023-04-06T13:06:17;7.03;;;3.25;;
42742;SDS011;28397;44.552;-0.848;2023-04-06T13:08:42;8.63;;;3.47;;
42742;SDS011;28397;44.552;-0.848;2023-04-06T13:11:08;9.55;;;3.70;;
42742;SDS011;28397;44.552;-0.848;2023-04-06T13:13:34;7.88;;;3.00;;
42742;SDS011;28397;44.552;-0.848;2023-04-06T13:16:01;8.43;;;2.78;;
42742;SDS011;28397;44.552;-0.848;2023-04-06T13:18:29;5.65;;;2.63;;
42742;SDS011;28397;44.552;-0.848;2023-04-06T13:20:56;6.90;;;2.22;;
42742;SDS011;28397;44.552;-0.848;2023-04-06T13:23:22;7.10;;;2.22;;
42742;SDS011;28397;44.552;-0.848;2023-04-06T13:25:56;4.00;;;2.45;;
42742;SDS011;28397;44.552;-0.848;2023-04-06T13:28:23;5.43;;;2.25;;
42742;SDS011;28397;44.552;-0.848;2023-04-06T13:30:49;6.40;;;2.38;;
42742;SDS011;28397;44.552;-0.848;2023-04-06T13:33:15;7.90;;;2.60;;
42742;SDS011;28397;44.552;-0.848;2023-04-06T13:35:44;6.78;;;2.50;;
42742;SDS011;28397;44.552;-0.848;2023-04-06T13:38:10;5.90;;;2.40;;
42742;SDS011;28397;44.552;-0.848;2023-04-06T13:40:38;8.50;;;2.83;;
42742;SDS011;28397;44.552;-0.848;2023-04-06T13:43:05;6.60;;;2.80;;
42742;SDS011;28397;44.552;-0.848;2023-04-06T13:45:31;5.10;;;2.70;;
42742;SDS011;28397;44.552;-0.848;2023-04-06T13:47:56;8.05;;;2.70;;
42742;SDS011;28397;44.552;-0.848;2023-04-06T13:50:22;8.80;;;3.00;;
42742;SDS011;28397;44.552;-0.848;2023-04-06T13:52:50;7.35;;;2.85;;
42742;SDS011;28397;44.552;-0.848;2023-04-06T13:55:16;6.00;;;2.67;;
42742;SDS011;28397;44.552;-0.848;2023-04-06T13:57:42;7.70;;;3.00;;
42742;SDS011;28397;44.552;-0.848;2023-04-06T14:00:07;10.38;;;2.80;;
42742;SDS011;28397;44.552;-0.848;2023-04-06T14:02:34;11.25;;;2.83;;
42742;SDS011;28397;44.552;-0.848;2023-04-06T14:05:00;10.85;;;2.88;;
42742;SDS011;28397;44.552;-0.848;2023-04-06T14:07:26;5.72;;;2.90;;
42742;SDS011;28397;44.552;-0.848;2023-04-06T14:09:51;7.07;;;2.75;;
42742;SDS011;28397;44.552;-0.848;2023-04-06T14:12:17;8.27;;;3.03;;
42742;SDS011;28397;44.552;-0.848;2023-04-06T14:14:43;6.43;;;2.55;;
42742;SDS011;28397;44.552;-0.848;2023-04-06T14:17:08;5.97;;;2.70;;
42742;SDS011;28397;44.552;-0.848;2023-04-06T14:19:34;11.15;;;3.00;;
42742;SDS011;28397;44.552;-0.848;2023-04-06T14:22:01;6.78;;;2.55;;
42742;SDS011;28397;44.552;-0.848;2023-04-06T14:24:27;8.40;;;2.60;;
42742;SDS011;28397;44.552;-0.848;2023-04-06T14:26:52;5.97;;;2.50;;
42742;SDS011;28397;44.552;-0.848;2023-04-06T14:29:18;5.70;;;2.78;;
42742;SDS011;28397;44.552;-0.848;2023-04-06T14:31:47;5.72;;;2.60;;